METAR Data
IDs: Format: Raw Decoded Include TAF

Data at: 1829 UTC 26 Sep 2021

KY51 261815Z AUTO 20009G16KT 10SM CLR 23/14 A2982 RMK AO1 T02340135